Time;durP1;ratioP1;P1;durP2;ratioP2;P2;SDS_P1;SDS_P2;PMS_P1;PMS_P2;Temp;Humidity;BMP_temperature;BMP_pressure;BME280_temperature;BME280_humidity;BME280_pressure;Samples;Min_cycle;Max_cycle;Signal;HPM_P1;HPM_P2
2024/02/23 00:00:34;;;;;;;4.18;0.30;;;;;;;8.07;100.00;99707.84;5067972;28;20039;-67
2024/02/23 00:03:00;;;;;;;3.47;0.40;;;;;;;8.09;100.00;99705.91;5065902;28;20433;-67
2024/02/23 00:05:25;;;;;;;2.35;0.25;;;;;;;8.10;100.00;99709.34;5073490;28;20036;-67
2024/02/23 00:07:51;;;;;;;4.50;0.40;;;;;;;8.08;100.00;99701.69;5069351;28;20043;-67
2024/02/23 00:10:16;;;;;;;1.35;0.30;;;;;;;8.08;100.00;99699.09;5067570;28;20051;-67
2024/02/23 00:12:43;;;;;;;2.00;0.30;;;;;;;8.08;100.00;99699.09;5066241;28;20024;-68
2024/02/23 00:15:09;;;;;;;0.60;0.20;;;;;;;8.07;100.00;99697.47;5065464;28;20043;-67
2024/02/23 00:17:34;;;;;;;1.05;0.30;;;;;;;8.08;100.00;99699.09;5069854;28;20334;-67
2024/02/23 00:20:00;;;;;;;2.53;0.20;;;;;;;8.07;100.00;99692.28;5063941;28;20047;-67
2024/02/23 00:22:25;;;;;;;2.47;0.28;;;;;;;8.05;100.00;99696.78;5075077;28;20057;-67
2024/02/23 00:24:51;;;;;;;2.40;0.25;;;;;;;8.06;100.00;99695.03;5067208;28;20402;-67
2024/02/23 00:27:17;;;;;;;1.80;0.32;;;;;;;8.05;100.00;99694.22;5063464;28;20024;-67
2024/02/23 00:29:42;;;;;;;0.50;0.20;;;;;;;8.07;100.00;99687.09;5062649;28;20348;-67
2024/02/23 00:32:08;;;;;;;5.32;0.30;;;;;;;8.07;100.00;99688.88;5064369;28;20039;-67
2024/02/23 00:34:33;;;;;;;2.10;0.30;;;;;;;8.07;100.00;99681.91;5065960;28;20035;-67
2024/02/23 00:36:59;;;;;;;1.10;0.30;;;;;;;8.03;100.00;99675.41;5064288;28;20158;-67
2024/02/23 00:39:24;;;;;;;2.75;0.20;;;;;;;8.01;100.00;99666.94;5067312;28;20040;-67
2024/02/23 00:41:50;;;;;;;6.60;0.40;;;;;;;8.02;100.00;99672.97;5077989;28;20032;-67
2024/02/23 00:44:15;;;;;;;1.30;0.30;;;;;;;8.03;100.00;99675.41;5078061;28;20036;-67
2024/02/23 00:46:41;;;;;;;2.45;0.50;;;;;;;8.02;100.00;99668.59;5062194;28;20059;-66
2024/02/23 00:49:06;;;;;;;2.28;0.22;;;;;;;7.99;100.00;99668.88;5066187;28;20086;-66
2024/02/23 00:51:32;;;;;;;4.65;0.40;;;;;;;7.99;100.00;99676.66;5071917;28;20476;-66
2024/02/23 00:53:57;;;;;;;4.75;0.30;;;;;;;7.99;100.00;99674.06;5073176;28;20577;-66
2024/02/23 00:56:23;;;;;;;2.05;0.30;;;;;;;7.98;100.00;99678.44;5068533;28;20028;-67
2024/02/23 00:58:48;;;;;;;0.73;0.30;;;;;;;7.99;100.00;99679.25;5074333;28;20047;-67
2024/02/23 01:01:14;;;;;;;1.10;0.38;;;;;;;7.98;100.00;99668.06;5089328;28;20085;-66
2024/02/23 01:03:39;;;;;;;1.55;0.45;;;;;;;7.98;100.00;99667.25;5088424;28;20028;-66
2024/02/23 01:06:05;;;;;;;0.57;0.20;;;;;;;8.01;100.00;99666.13;5092736;28;20136;-68
2024/02/23 01:08:31;;;;;;;0.80;0.50;;;;;;;7.98;100.00;99662.06;5090252;28;20020;-68
2024/02/23 01:10:56;;;;;;;4.20;0.40;;;;;;;7.96;100.00;99658.78;5092534;28;20032;-67
2024/02/23 01:13:22;;;;;;;1.63;0.40;;;;;;;7.96;100.00;99666.56;5086851;28;20054;-67
2024/02/23 01:15:48;;;;;;;4.72;0.40;;;;;;;7.93;100.00;99659.09;5090171;28;20050;-66
2024/02/23 01:18:14;;;;;;;4.97;0.40;;;;;;;7.93;100.00;99653.91;5086740;28;20035;-66
2024/02/23 01:20:39;;;;;;;2.60;0.60;;;;;;;7.92;100.00;99647.09;5088949;28;20524;-67
2024/02/23 01:23:05;;;;;;;2.60;0.40;;;;;;;7.93;100.00;99651.31;5090074;28;20036;-67
2024/02/23 01:25:30;;;;;;;2.90;0.57;;;;;;;7.90;100.00;99644.63;5088223;28;20098;-67
2024/02/23 01:27:56;;;;;;;1.65;0.55;;;;;;;7.86;100.00;99647.66;5090036;28;20092;-67
2024/02/23 01:30:21;;;;;;;1.45;0.40;;;;;;;7.87;100.00;99636.31;5090678;28;20032;-66
2024/02/23 01:32:46;;;;;;;3.25;0.55;;;;;;;7.88;100.00;99640.56;5087365;28;20044;-67
2024/02/23 01:35:12;;;;;;;1.67;0.40;;;;;;;7.89;100.00;99639.59;5085272;28;20028;-67
2024/02/23 01:37:37;;;;;;;2.28;0.40;;;;;;;7.87;100.00;99634.56;5086653;28;20528;-67
2024/02/23 01:40:03;;;;;;;1.25;0.50;;;;;;;7.84;100.00;99628.84;5089280;28;20034;-67
2024/02/23 01:42:29;;;;;;;2.88;0.52;;;;;;;7.83;100.00;99629.81;5088623;28;20034;-67
2024/02/23 01:44:57;;;;;;;2.67;0.40;;;;;;;7.85;100.00;99636.47;5089213;28;20039;-67
2024/02/23 01:47:25;;;;;;;3.25;0.50;;;;;;;7.84;100.00;99629.66;5088790;28;20036;-67
2024/02/23 01:49:51;;;;;;;4.13;0.52;;;;;;;7.81;100.00;99624.75;5086130;28;20044;-68
2024/02/23 01:52:18;;;;;;;2.85;0.55;;;;;;;7.82;100.00;99617.81;5089700;28;20570;-66
2024/02/23 01:54:44;;;;;;;1.70;0.50;;;;;;;7.81;100.00;99618.75;5086303;28;20081;-67
2024/02/23 01:57:10;;;;;;;0.98;0.30;;;;;;;7.80;100.00;99617.94;5086577;28;20035;-67
2024/02/23 01:59:37;;;;;;;1.13;0.30;;;;;;;7.78;100.00;99609.50;5085333;28;20032;-67
2024/02/23 02:02:04;;;;;;;0.90;0.40;;;;;;;7.74;100.00;99607.34;5088321;28;20024;-66
2024/02/23 02:04:29;;;;;;;4.35;0.40;;;;;;;7.73;100.00;99605.72;5087421;28;20044;-67
2024/02/23 02:06:57;;;;;;;1.33;0.40;;;;;;;7.74;100.00;99605.56;5088425;28;20039;-67
2024/02/23 02:09:22;;;;;;;1.35;0.40;;;;;;;7.73;100.00;99605.72;5086250;28;20016;-67
2024/02/23 02:11:48;;;;;;;3.80;0.77;;;;;;;7.70;100.00;99600.81;5082098;28;20442;-67
2024/02/23 02:14:15;;;;;;;1.63;0.40;;;;;;;7.74;100.00;99604.75;5088934;28;20126;-67
2024/02/23 02:16:40;;;;;;;0.95;0.28;;;;;;;7.72;100.00;99594.53;5087208;28;20043;-67
2024/02/23 02:19:06;;;;;;;1.83;0.30;;;;;;;7.69;100.00;99596.59;5089399;28;20032;-67
2024/02/23 02:21:32;;;;;;;1.23;0.35;;;;;;;7.68;100.00;99595.78;5083968;28;20028;-67
2024/02/23 02:23:58;;;;;;;1.92;0.43;;;;;;;7.65;100.00;99591.69;5084360;28;20032;-67
2024/02/23 02:26:23;;;;;;;1.65;0.30;;;;;;;7.65;100.00;99589.09;5079740;28;20025;-68
2024/02/23 02:28:49;;;;;;;4.70;0.45;;;;;;;7.68;100.00;99593.19;5087854;28;20432;-67
2024/02/23 02:31:14;;;;;;;0.82;0.25;;;;;;;7.67;100.00;99586.38;5080702;28;20438;-67
2024/02/23 02:33:40;;;;;;;1.95;0.25;;;;;;;7.65;100.00;99588.28;5083557;28;20032;-67
2024/02/23 02:36:06;;;;;;;3.17;0.40;;;;;;;7.66;100.00;99579.56;5082888;28;20028;-67
2024/02/23 02:38:33;;;;;;;1.25;0.30;;;;;;;7.65;100.00;99581.31;5086166;28;20036;-67
2024/02/23 02:41:01;;;;;;;2.60;0.32;;;;;;;7.69;100.00;99571.47;5089343;28;20031;-67
2024/02/23 02:43:27;;;;;;;1.60;0.40;;;;;;;7.71;100.00;99577.34;5084743;28;20040;-68
2024/02/23 02:45:53;;;;;;;0.82;0.30;;;;;;;7.68;100.00;99571.63;5084173;28;20554;-67
2024/02/23 02:48:18;;;;;;;2.50;0.30;;;;;;;7.65;100.00;99573.56;5085960;28;20030;-67
2024/02/23 02:50:44;;;;;;;0.88;0.30;;;;;;;7.63;100.00;99559.09;5083425;28;20162;-68
2024/02/23 02:53:10;;;;;;;1.55;0.30;;;;;;;7.61;100.00;99556.66;5084118;28;20054;-67
2024/02/23 02:55:36;;;;;;;2.08;0.50;;;;;;;7.63;100.00;99553.91;5086139;28;20024;-68
2024/02/23 02:58:02;;;;;;;3.00;0.40;;;;;;;7.62;100.00;99547.91;5087970;28;20400;-68
2024/02/23 03:00:27;;;;;;;1.13;0.30;;;;;;;7.63;100.00;99554.72;5086772;28;20028;-67
2024/02/23 03:02:53;;;;;;;1.40;0.40;;;;;;;7.62;100.00;99537.56;5082234;28;20042;-67
2024/02/23 03:05:18;;;;;;;1.27;0.30;;;;;;;7.58;100.00;99536.22;5078139;28;20024;-67
2024/02/23 03:07:44;;;;;;;1.00;0.30;;;;;;;7.56;100.00;99532.94;5071609;28;20028;-67
2024/02/23 03:10:09;;;;;;;2.40;0.40;;;;;;;7.57;100.00;99534.59;5065303;28;20044;-67
2024/02/23 03:12:35;;;;;;;1.88;0.30;;;;;;;7.56;100.00;99522.59;5067512;28;20036;-67
2024/02/23 03:15:02;;;;;;;3.25;0.40;;;;;;;7.55;100.00;99528.75;5067384;28;20044;-68
2024/02/23 03:17:28;;;;;;;4.78;0.57;;;;;;;7.57;100.00;99521.63;5065106;28;20040;-67
2024/02/23 03:19:53;;;;;;;1.70;0.63;;;;;;;7.56;100.00;99511.44;5066038;28;20079;-67
2024/02/23 03:22:18;;;;;;;4.28;0.40;;;;;;;7.52;100.00;99505.72;5063068;28;20518;-67
2024/02/23 03:24:44;;;;;;;1.60;0.45;;;;;;;7.52;100.00;99504.91;5063042;28;20036;-67
2024/02/23 03:27:10;;;;;;;2.35;0.40;;;;;;;7.53;100.00;99507.34;5064775;28;20480;-67
2024/02/23 03:29:35;;;;;;;1.52;0.32;;;;;;;7.53;100.00;99499.59;5069866;28;20036;-67
2024/02/23 03:32:01;;;;;;;3.22;0.32;;;;;;;7.54;100.00;99501.22;5069238;28;20028;-67
2024/02/23 03:34:26;;;;;;;0.90;0.25;;;;;;;7.55;100.00;99502.03;5066083;28;20039;-67
2024/02/23 03:36:52;;;;;;;1.33;0.40;;;;;;;7.54;100.00;99496.03;5065474;28;20036;-67
2024/02/23 03:39:18;;;;;;;3.17;0.50;;;;;;;7.55;100.00;99504.63;5068939;28;20141;-67
2024/02/23 03:41:43;;;;;;;2.10;0.65;;;;;;;7.59;100.00;99496.38;5086757;28;20032;-67
2024/02/23 03:44:09;;;;;;;2.00;0.40;;;;;;;7.55;100.00;99495.06;5071471;28;20035;-67
2024/02/23 03:46:35;;;;;;;2.92;0.70;;;;;;;7.56;100.00;99495.88;5066838;28;20391;-67
2024/02/23 03:49:01;;;;;;;4.70;0.70;;;;;;;7.57;100.00;99497.47;5065167;28;20217;-67
2024/02/23 03:51:26;;;;;;;1.13;0.40;;;;;;;7.59;100.00;99501.56;5079788;28;20032;-67
2024/02/23 03:53:52;;;;;;;6.07;0.85;;;;;;;7.54;100.00;99498.63;5065881;28;20039;-67
2024/02/23 03:56:17;;;;;;;0.77;0.40;;;;;;;7.51;100.00;99487.72;5067157;28;20036;-67
2024/02/23 03:58:43;;;;;;;3.65;0.30;;;;;;;7.53;100.00;99486.63;5064534;28;20032;-67
2024/02/23 04:01:09;;;;;;;0.75;0.20;;;;;;;7.56;100.00;99486.28;5072387;28;20426;-66
2024/02/23 04:03:35;;;;;;;3.47;0.40;;;;;;;7.52;100.00;99485.00;5067174;28;20101;-66
2024/02/23 04:06:00;;;;;;;1.02;0.38;;;;;;;7.48;100.00;99468.09;5076343;28;20048;-66
2024/02/23 04:08:26;;;;;;;2.42;0.47;;;;;;;7.50;100.00;99476.56;5066324;28;20028;-67
2024/02/23 04:10:51;;;;;;;2.42;0.30;;;;;;;7.51;100.00;99473.00;5063473;28;20071;-67
2024/02/23 04:13:17;;;;;;;1.48;0.60;;;;;;;7.52;100.00;99474.63;5065314;28;20495;-67
2024/02/23 04:15:43;;;;;;;0.88;0.28;;;;;;;7.53;100.00;99473.66;5069054;28;20665;-67
2024/02/23 04:18:09;;;;;;;1.65;0.40;;;;;;;7.55;100.00;99461.38;5065088;28;20032;-67
2024/02/23 04:20:35;;;;;;;2.17;0.40;;;;;;;7.55;100.00;99463.16;5065667;28;20051;-66
2024/02/23 04:23:00;;;;;;;2.15;0.45;;;;;;;7.57;100.00;99461.19;5067598;28;20032;-66
2024/02/23 04:25:25;;;;;;;2.60;0.50;;;;;;;7.56;100.00;99457.78;5065686;28;20040;-66
2024/02/23 04:27:51;;;;;;;2.10;0.50;;;;;;;7.57;100.00;99463.78;5069621;28;20043;-67
2024/02/23 04:30:16;;;;;;;1.50;0.60;;;;;;;7.58;100.00;99468.00;5072697;28;20016;-67
2024/02/23 04:32:44;;;;;;;2.90;0.50;;;;;;;7.59;100.00;99454.88;5070570;28;20040;-67
2024/02/23 04:35:09;;;;;;;2.42;0.65;;;;;;;7.58;100.00;99458.44;5071022;28;20102;-67
2024/02/23 04:37:35;;;;;;;6.40;0.40;;;;;;;7.62;100.00;99458.97;5069639;28;20037;-67
2024/02/23 04:40:00;;;;;;;1.33;0.40;;;;;;;7.63;100.00;99460.59;5072932;28;20132;-66
2024/02/23 04:42:27;;;;;;;0.63;0.30;;;;;;;7.60;100.00;99456.53;5083477;28;20040;-66
2024/02/23 04:44:54;;;;;;;1.13;0.40;;;;;;;7.61;100.00;99442.59;5069407;28;20106;-66
2024/02/23 04:47:20;;;;;;;0.88;0.25;;;;;;;7.61;100.00;99437.41;5070448;28;20032;-66
2024/02/23 04:49:46;;;;;;;1.98;0.40;;;;;;;7.62;100.00;99436.44;5068506;28;20024;-67
2024/02/23 04:52:11;;;;;;;1.60;0.32;;;;;;;7.62;100.00;99433.84;5074583;28;20086;-67
2024/02/23 04:54:37;;;;;;;0.70;0.32;;;;;;;7.62;100.00;99418.28;5075902;28;20694;-66
2024/02/23 04:57:02;;;;;;;1.67;0.30;;;;;;;7.65;100.00;99423.19;5068320;28;20028;-67
2024/02/23 04:59:29;;;;;;;0.70;0.20;;;;;;;7.66;100.00;99421.41;5070015;28;20060;-67
2024/02/23 05:01:55;;;;;;;0.95;0.40;;;;;;;7.68;100.00;99426.44;5071571;28;20032;-67
2024/02/23 05:04:20;;;;;;;0.63;0.30;;;;;;;7.66;100.00;99419.63;5069442;28;20032;-68
2024/02/23 05:06:46;;;;;;;1.42;0.43;;;;;;;7.67;100.00;99404.88;5077941;28;20158;-67
2024/02/23 05:09:11;;;;;;;3.55;0.47;;;;;;;7.64;100.00;99408.59;5068636;28;20775;-67
2024/02/23 05:11:37;;;;;;;1.33;0.40;;;;;;;7.63;100.00;99409.56;5066312;28;20044;-67
2024/02/23 05:14:03;;;;;;;0.70;0.30;;;;;;;7.63;100.00;99404.38;5065819;28;20040;-66
2024/02/23 05:16:28;;;;;;;2.92;0.47;;;;;;;7.63;100.00;99413.94;5068092;28;20027;-67
2024/02/23 05:18:53;;;;;;;2.53;0.40;;;;;;;7.61;100.00;99406.31;5066071;28;20074;-67
2024/02/23 05:21:19;;;;;;;0.60;0.30;;;;;;;7.63;100.00;99394.00;5078876;28;20387;-67
2024/02/23 05:23:46;;;;;;;1.52;0.50;;;;;;;7.65;100.00;99392.06;5076130;28;20042;-67
2024/02/23 05:26:12;;;;;;;0.90;0.30;;;;;;;7.64;100.00;99394.81;5067454;28;20684;-67
2024/02/23 05:28:38;;;;;;;1.85;0.50;;;;;;;7.64;100.00;99392.22;5065608;28;20028;-67
2024/02/23 05:31:04;;;;;;;1.27;0.30;;;;;;;7.62;100.00;99400.16;5071199;28;20036;-67
2024/02/23 05:33:30;;;;;;;2.90;0.47;;;;;;;7.59;100.00;99382.31;5066206;28;20044;-67
2024/02/23 05:35:55;;;;;;;1.15;0.30;;;;;;;7.59;100.00;99394.44;5067215;28;20031;-68
2024/02/23 05:38:21;;;;;;;1.13;0.20;;;;;;;7.57;100.00;99389.41;5069377;28;20076;-68
2024/02/23 05:40:48;;;;;;;4.50;0.30;;;;;;;7.55;100.00;99386.19;5071583;28;20085;-67
2024/02/23 05:43:13;;;;;;;3.95;0.63;;;;;;;7.58;100.00;99380.69;5067427;28;20032;-68
2024/02/23 05:45:39;;;;;;;0.70;0.20;;;;;;;7.56;100.00;99381.81;5065678;28;20047;-68
2024/02/23 05:48:05;;;;;;;1.88;0.30;;;;;;;7.58;100.00;99396.22;5070885;28;21141;-68
2024/02/23 05:50:31;;;;;;;1.45;0.30;;;;;;;7.57;100.00;99389.41;5066724;28;20126;-68
2024/02/23 05:52:56;;;;;;;0.60;0.13;;;;;;;7.54;100.00;99389.75;5078677;28;20081;-68
2024/02/23 05:55:22;;;;;;;0.80;0.20;;;;;;;7.57;100.00;99368.69;5076599;28;20028;-68
2024/02/23 05:57:47;;;;;;;1.00;0.20;;;;;;;7.56;100.00;99377.44;5066466;28;20036;-67
2024/02/23 06:00:14;;;;;;;1.42;0.30;;;;;;;7.55;100.00;99386.19;5067208;28;20101;-68
2024/02/23 06:02:40;;;;;;;1.23;0.20;;;;;;;7.57;100.00;99384.22;5089358;28;20092;-68
2024/02/23 06:05:07;;;;;;;2.35;0.30;;;;;;;7.55;100.00;99372.41;5085884;28;20024;-68
2024/02/23 06:07:34;;;;;;;2.80;0.35;;;;;;;7.54;100.00;99368.19;5086059;28;20024;-67
2024/02/23 06:10:00;;;;;;;1.20;0.17;;;;;;;7.53;100.00;99372.56;5090685;28;20078;-68
2024/02/23 06:12:26;;;;;;;7.20;1.88;;;;;;;7.54;100.00;99361.25;5086771;28;20024;-68
2024/02/23 06:14:52;;;;;;;3.10;0.20;;;;;;;7.54;100.00;99369.00;5077196;28;20048;-68
2024/02/23 06:17:18;;;;;;;2.15;0.30;;;;;;;7.57;100.00;99368.69;5088090;28;20024;-68
2024/02/23 06:19:43;;;;;;;3.72;0.20;;;;;;;7.52;100.00;99352.00;5086319;28;20044;-68
2024/02/23 06:22:10;;;;;;;1.70;0.30;;;;;;;7.57;100.00;99349.72;5083251;28;20035;-68
2024/02/23 06:24:36;;;;;;;3.33;0.30;;;;;;;7.57;100.00;99339.34;5081032;28;20387;-68
2024/02/23 06:27:03;;;;;;;0.82;0.20;;;;;;;7.58;100.00;99334.03;5088751;28;20035;-68
2024/02/23 06:29:29;;;;;;;1.42;0.20;;;;;;;7.58;100.00;99333.22;5088802;28;20450;-69
2024/02/23 06:31:55;;;;;;;4.93;0.30;;;;;;;7.58;100.00;99328.84;5082379;28;20062;-68
2024/02/23 06:34:21;;;;;;;3.63;0.20;;;;;;;7.60;100.00;99331.28;5088095;28;20055;-69
2024/02/23 06:36:46;;;;;;;2.05;0.30;;;;;;;7.60;100.00;99329.50;5089034;28;20085;-68
2024/02/23 06:39:12;;;;;;;2.50;0.30;;;;;;;7.59;100.00;99330.47;5089771;28;20051;-68
2024/02/23 06:41:38;;;;;;;2.35;0.30;;;;;;;7.55;100.00;99324.00;5087503;28;20028;-68
2024/02/23 06:44:04;;;;;;;2.67;0.50;;;;;;;7.59;100.00;99325.28;5084495;28;20032;-68
2024/02/23 06:46:30;;;;;;;1.20;0.20;;;;;;;7.59;100.00;99325.28;5078356;28;20198;-68
2024/02/23 06:48:56;;;;;;;1.30;0.20;;;;;;;7.61;100.00;99323.34;5082486;28;20425;-68
2024/02/23 06:51:21;;;;;;;1.02;0.22;;;;;;;7.63;100.00;99320.59;5089438;28;20032;-69
2024/02/23 06:53:47;;;;;;;0.90;0.28;;;;;;;7.63;100.00;99318.81;5085270;28;20036;-68
2024/02/23 06:56:12;;;;;;;0.35;0.20;;;;;;;7.66;100.00;99330.66;5088988;28;20097;-69
2024/02/23 06:58:39;;;;;;;1.95;0.30;;;;;;;7.61;100.00;99314.75;5083853;28;20036;-68
2024/02/23 07:01:06;;;;;;;1.17;0.22;;;;;;;7.60;100.00;99311.34;5089403;28;20399;-69
2024/02/23 07:03:32;;;;;;;2.78;0.20;;;;;;;7.63;100.00;99305.06;5086046;28;20032;-69
2024/02/23 07:05:57;;;;;;;1.73;0.20;;;;;;;7.64;100.00;99304.09;5086965;28;20031;-68
2024/02/23 07:08:23;;;;;;;3.00;0.32;;;;;;;7.61;100.00;99314.75;5088502;28;20992;-69
2024/02/23 07:10:48;;;;;;;3.28;0.22;;;;;;;7.68;100.00;99314.97;5089584;28;20491;-69
2024/02/23 07:13:14;;;;;;;1.77;0.30;;;;;;;7.69;100.00;99304.44;5089550;28;20051;-68
2024/02/23 07:15:39;;;;;;;2.15;0.25;;;;;;;7.66;100.00;99304.75;5087212;28;20042;-69
2024/02/23 07:18:05;;;;;;;0.50;0.20;;;;;;;7.66;100.00;99299.56;5088558;28;20031;-68
2024/02/23 07:20:31;;;;;;;0.88;0.20;;;;;;;7.72;100.00;99304.13;5087757;28;20059;-69
2024/02/23 07:22:56;;;;;;;0.88;0.30;;;;;;;7.78;100.00;99292.34;5087073;28;20535;-69
2024/02/23 07:25:22;;;;;;;4.38;0.20;;;;;;;7.79;100.00;99288.78;5083080;28;20039;-68
2024/02/23 07:27:49;;;;;;;2.10;0.30;;;;;;;7.82;100.00;99288.47;5082155;28;20079;-69
2024/02/23 07:30:16;;;;;;;0.98;0.30;;;;;;;7.81;100.00;99292.84;5083583;28;20441;-67
2024/02/23 07:32:41;;;;;;;0.73;0.22;;;;;;;7.79;100.00;99288.78;5085038;28;20037;-67
2024/02/23 07:35:07;;;;;;;0.63;0.20;;;;;;;7.79;100.00;99294.78;5084675;28;20031;-67
2024/02/23 07:37:33;;;;;;;0.88;0.20;;;;;;;7.82;100.00;99286.69;5081329;28;20037;-67
2024/02/23 07:39:58;;;;;;;1.58;0.20;;;;;;;7.84;100.00;99270.97;5082500;28;20399;-67
2024/02/23 07:42:23;;;;;;;1.23;0.30;;;;;;;7.82;100.00;99278.09;5081146;28;20024;-67
2024/02/23 07:44:49;;;;;;;1.20;0.20;;;;;;;7.88;100.00;99270.50;5082224;28;20337;-67
2024/02/23 07:47:14;;;;;;;4.63;0.20;;;;;;;7.88;100.00;99270.50;5082100;28;20054;-67
2024/02/23 07:49:43;;;;;;;2.17;0.22;;;;;;;7.89;100.00;99261.75;5085346;28;20028;-67
2024/02/23 07:52:08;;;;;;;0.90;0.30;;;;;;;7.90;100.00;99250.41;5083933;28;20027;-67
2024/02/23 07:54:34;;;;;;;0.55;0.17;;;;;;;7.93;100.00;99257.88;5086727;28;20369;-67
2024/02/23 07:56:59;;;;;;;4.88;0.20;;;;;;;7.98;100.00;99240.06;5085171;28;20046;-67
2024/02/23 07:59:25;;;;;;;1.55;0.32;;;;;;;8.03;100.00;99249.16;5081064;28;20032;-67
2024/02/23 08:01:50;;;;;;;2.80;0.30;;;;;;;8.04;100.00;99254.16;5083701;28;20038;-67
2024/02/23 08:04:16;;;;;;;3.75;0.30;;;;;;;8.08;100.00;99250.28;5079763;28;20135;-67
2024/02/23 08:06:42;;;;;;;1.13;0.28;;;;;;;8.08;100.00;99245.09;5078558;28;20460;-67
2024/02/23 08:09:08;;;;;;;1.88;0.30;;;;;;;8.11;100.00;99231.00;5086008;28;20034;-67
2024/02/23 08:11:33;;;;;;;1.67;0.30;;;;;;;8.15;100.00;99229.72;5083332;28;20421;-67
2024/02/23 08:13:59;;;;;;;0.40;0.20;;;;;;;8.21;100.00;99226.50;5084557;28;20044;-68
2024/02/23 08:16:24;;;;;;;1.08;0.20;;;;;;;8.27;100.00;99228.44;5082876;28;20132;-68
2024/02/23 08:18:50;;;;;;;2.70;0.50;;;;;;;8.26;100.00;99229.41;5087477;28;20032;-68
2024/02/23 08:21:15;;;;;;;3.40;0.20;;;;;;;8.28;100.00;99215.31;5080112;28;20032;-68
2024/02/23 08:23:41;;;;;;;2.35;0.20;;;;;;;8.28;100.00;99207.53;5082709;28;20028;-67
2024/02/23 08:26:06;;;;;;;6.57;0.40;;;;;;;8.31;100.00;99196.84;5082848;28;20039;-68
2024/02/23 08:28:32;;;;;;;2.78;0.47;;;;;;;8.33;100.00;99209.69;5088803;28;20029;-68
2024/02/23 08:30:57;;;;;;;1.67;0.40;;;;;;;8.29;100.00;99213.53;5080083;28;20035;-68
2024/02/23 08:33:23;;;;;;;2.20;0.32;;;;;;;8.29;100.00;99213.53;5082310;28;20024;-67
2024/02/23 08:35:48;;;;;;;1.20;0.40;;;;;;;8.30;100.00;99215.97;5084271;28;20118;-67
2024/02/23 08:38:14;;;;;;;1.88;0.47;;;;;;;8.30;100.00;99212.56;5082555;28;20031;-68
2024/02/23 08:40:39;;;;;;;2.33;0.30;;;;;;;8.28;100.00;99210.13;5086681;28;20051;-67
2024/02/23 08:43:05;;;;;;;1.33;0.25;;;;;;;8.31;100.00;99196.84;5086618;28;20044;-68
2024/02/23 08:45:30;;;;;;;1.08;0.40;;;;;;;8.31;100.00;99186.44;5077948;28;20345;-68
2024/02/23 08:47:56;;;;;;;3.53;0.40;;;;;;;8.29;100.00;99183.22;5088106;28;20031;-68
2024/02/23 08:50:21;;;;;;;2.03;0.38;;;;;;;8.38;100.00;99178.88;5084237;28;20020;-68
2024/02/23 08:52:47;;;;;;;3.65;0.40;;;;;;;8.38;100.00;99170.28;5085460;28;20064;-68
2024/02/23 08:55:12;;;;;;;1.50;0.60;;;;;;;8.39;100.00;99177.09;5082329;28;20039;-68
2024/02/23 08:57:38;;;;;;;2.53;0.50;;;;;;;8.35;100.00;99180.97;5082579;28;20047;-68
2024/02/23 09:00:05;;;;;;;3.85;0.47;;;;;;;8.29;100.00;99172.00;5085976;28;20115;-68
2024/02/23 09:02:32;;;;;;;1.20;0.57;;;;;;;8.28;100.00;99176.41;5083864;28;20036;-68
2024/02/23 09:04:58;;;;;;;3.22;0.70;;;;;;;8.32;100.00;99180.31;5083897;28;20047;-69
2024/02/23 09:07:23;;;;;;;3.40;0.50;;;;;;;8.34;100.00;99177.56;5085410;28;20494;-68
2024/02/23 09:09:49;;;;;;;5.07;0.50;;;;;;;8.31;100.00;99170.06;5085075;28;20102;-68
2024/02/23 09:12:16;;;;;;;3.97;0.52;;;;;;;8.25;100.00;99158.56;5089377;28;20572;-68
2024/02/23 09:14:44;;;;;;;6.45;1.67;;;;;;;8.28;100.00;99150.44;5088079;28;20049;-68
2024/02/23 09:17:11;;;;;;;1.58;0.55;;;;;;;8.28;100.00;99155.63;5090204;28;20392;-68
2024/02/23 09:19:37;;;;;;;5.82;0.70;;;;;;;8.39;100.00;99140.75;5090192;28;20040;-68
2024/02/23 09:22:03;;;;;;;1.42;0.32;;;;;;;8.37;100.00;99153.88;5089126;28;20062;-68
2024/02/23 09:24:28;;;;;;;3.28;0.50;;;;;;;8.31;100.00;99167.47;5086865;28;20465;-68
2024/02/23 09:26:54;;;;;;;1.40;0.43;;;;;;;8.27;100.00;99159.19;5087335;28;20027;-68
2024/02/23 09:29:19;;;;;;;3.05;0.55;;;;;;;8.26;100.00;99157.56;5089138;28;20548;-68
2024/02/23 09:31:45;;;;;;;2.42;0.90;;;;;;;8.30;100.00;99151.09;5087145;28;20039;-68
2024/02/23 09:34:10;;;;;;;1.08;0.50;;;;;;;8.25;100.00;99155.94;5087703;28;20128;-68
2024/02/23 09:36:36;;;;;;;3.35;1.30;;;;;;;8.26;100.00;99154.97;5080182;28;20025;-69
2024/02/23 09:39:04;;;;;;;4.75;1.33;;;;;;;8.23;100.00;99141.53;5081959;28;20589;-68
2024/02/23 09:41:30;;;;;;;1.77;0.60;;;;;;;8.25;100.00;99145.56;5086205;28;20031;-69
2024/02/23 09:43:58;;;;;;;7.22;0.60;;;;;;;8.25;100.00;99136.97;5084649;28;20028;-69
2024/02/23 09:46:25;;;;;;;1.55;0.52;;;;;;;8.28;100.00;99140.06;5083556;28;20032;-69
2024/02/23 09:48:51;;;;;;;2.42;0.63;;;;;;;8.28;100.00;99132.28;5086602;28;20040;-69
2024/02/23 09:51:17;;;;;;;4.30;0.95;;;;;;;8.26;100.00;99129.03;5088347;28;20106;-69
2024/02/23 09:53:43;;;;;;;2.90;0.80;;;;;;;8.27;100.00;99120.28;5086224;28;20031;-69
2024/02/23 09:56:10;;;;;;;1.45;0.40;;;;;;;8.30;100.00;99132.13;5086742;28;20028;-68
2024/02/23 09:58:41;;;;;;;2.55;0.65;;;;;;;8.28;100.00;99128.88;5086023;28;20036;-69
2024/02/23 10:01:07;;;;;;;4.00;0.40;;;;;;;8.27;100.00;99119.47;5085932;28;20476;-69
2024/02/23 10:03:32;;;;;;;3.55;0.50;;;;;;;8.35;100.00;99103.13;5083435;28;20044;-69
2024/02/23 10:05:59;;;;;;;1.63;0.60;;;;;;;8.37;100.00;99106.38;5086412;28;20779;-69
2024/02/23 10:08:25;;;;;;;1.45;0.50;;;;;;;8.36;100.00;99099.56;5077930;28;20130;-68
2024/02/23 10:10:51;;;;;;;4.45;0.65;;;;;;;8.38;100.00;99079.44;5090005;28;20118;-68
2024/02/23 10:13:20;;;;;;;1.98;0.60;;;;;;;8.37;100.00;99086.41;5085415;28;20456;-69
2024/02/23 10:15:49;;;;;;;5.38;0.95;;;;;;;8.36;100.00;99095.16;5088980;28;20105;-69
2024/02/23 10:18:14;;;;;;;1.92;0.55;;;;;;;8.35;100.00;99090.94;5090544;28;20478;-69
2024/02/23 10:20:40;;;;;;;2.92;0.70;;;;;;;8.32;100.00;99091.25;5090322;28;20032;-68
2024/02/23 10:23:07;;;;;;;2.22;0.60;;;;;;;8.34;100.00;99096.31;5090215;28;20028;-69
2024/02/23 10:25:36;;;;;;;2.05;0.60;;;;;;;8.34;100.00;99086.75;5090421;28;20036;-68
2024/02/23 10:28:06;;;;;;;2.17;0.43;;;;;;;8.36;100.00;99096.97;5090453;28;20174;-69
2024/02/23 10:30:32;;;;;;;4.47;0.73;;;;;;;8.39;100.00;99084.47;5090139;28;20483;-69
2024/02/23 10:32:58;;;;;;;3.80;0.60;;;;;;;8.46;100.00;99088.03;5090486;28;20028;-69
2024/02/23 10:35:24;;;;;;;4.22;0.77;;;;;;;8.51;100.00;99061.56;5091081;28;20032;-68
2024/02/23 10:37:52;;;;;;;2.20;0.60;;;;;;;8.56;100.00;99065.28;5090072;28;20043;-68
2024/02/23 10:40:18;;;;;;;4.15;0.63;;;;;;;8.61;100.00;99073.38;5090764;28;20048;-69
2024/02/23 10:42:51;;;;;;;4.18;0.50;;;;;;;8.58;100.00;99057.31;5088740;28;20155;-68
2024/02/23 10:45:18;;;;;;;3.15;0.73;;;;;;;8.63;100.00;99065.44;5091032;28;20040;-68
2024/02/23 10:47:44;;;;;;;2.25;0.63;;;;;;;8.65;100.00;99050.50;5090485;28;20035;-69
2024/02/23 10:50:14;;;;;;;2.25;0.77;;;;;;;8.60;100.00;99051.00;5090771;28;20336;-68
2024/02/23 10:52:41;;;;;;;8.13;0.60;;;;;;;8.61;100.00;99044.81;5090625;28;20480;-69
2024/02/23 10:55:08;;;;;;;3.72;0.57;;;;;;;8.61;100.00;99054.41;5091126;28;20031;-68
2024/02/23 10:57:38;;;;;;;3.50;0.70;;;;;;;8.59;100.00;99048.56;5090607;28;20047;-68
2024/02/23 11:00:09;;;;;;;2.20;0.85;;;;;;;8.61;100.00;99046.59;5090851;28;20566;-68
2024/02/23 11:02:38;;;;;;;2.15;0.50;;;;;;;8.58;100.00;99045.16;5090324;28;20048;-69
2024/02/23 11:05:09;;;;;;;1.92;0.43;;;;;;;8.70;100.00;99037.81;5078493;28;20028;-68
2024/02/23 11:07:38;;;;;;;5.00;0.57;;;;;;;8.79;100.00;99026.44;5077172;28;20369;-68
2024/02/23 11:10:04;;;;;;;2.47;0.40;;;;;;;8.87;100.00;99042.00;5084504;28;20020;-69
2024/02/23 11:12:30;;;;;;;7.07;0.70;;;;;;;8.91;100.00;99025.09;5087479;28;21021;-68
2024/02/23 11:15:00;;;;;;;3.45;0.57;;;;;;;8.96;100.00;99030.59;5083874;28;20040;-68
2024/02/23 11:17:30;;;;;;;4.10;0.70;;;;;;;8.92;100.00;99012.91;5086028;28;20587;-67
2024/02/23 11:19:56;;;;;;;4.97;0.43;;;;;;;8.91;100.00;99012.13;5085537;28;20035;-66
2024/02/23 11:22:28;;;;;;;4.95;0.85;;;;;;;8.99;100.00;99004.25;5083064;28;20051;-67
2024/02/23 11:24:59;;;;;;;6.38;0.60;;;;;;;9.02;100.00;99004.91;5085198;28;20489;-67
2024/02/23 11:27:30;;;;;;;9.02;0.95;;;;;;;9.01;100.00;98995.47;5083773;28;20024;-67